首页
METAR-TAF:

METAR-TAF

机场 :

Kinloss, 苏格兰

纬度: 57-39N, 经度: 003-34W, 海拔: 7米

当前天气观测

该预报发布于1小时和17分钟前的05:50 UTC
风速17节,风向
温度 8°C
湿度 81%
气压 1013 hPa
能见度10公里或以上

METAR: EGQK 200550Z AUTO 36017KT 9999 FEW039/// BKN047/// 08/05 Q1013

时间: 08:07 (07:07 UTC)


TAF: 丢失

超过4000个机场的气象观测和天气预报(METAR&TAF报告)。

可查询的气象台以黄色和红色小点在地图上表示。

将鼠标移到小点上方,可查看气象台名称。

然后点击查看天气观测和预报。

如需切换地图:点击带黑十字的绿色按钮放大地图;点击带横线的绿色按钮缩小地图;或者点击绿色箭头查看邻近地区的地图。


METAR-TAF: